sensor_id;sensor_type;location;lat;lon;timestamp;P1;durP1;ratioP1;P2;durP2;ratioP2
70929;SDS011;58588;48.102;19.682;2023-05-07T00:00:58;25.58;;;12.98;;
70929;SDS011;58588;48.102;19.682;2023-05-07T00:04:02;28.85;;;14.20;;
70929;SDS011;58588;48.102;19.682;2023-05-07T00:07:04;23.40;;;11.43;;
70929;SDS011;58588;48.102;19.682;2023-05-07T00:10:06;27.67;;;11.52;;
70929;SDS011;58588;48.102;19.682;2023-05-07T00:13:10;23.97;;;11.37;;
70929;SDS011;58588;48.102;19.682;2023-05-07T00:16:12;22.40;;;11.20;;
70929;SDS011;58588;48.102;19.682;2023-05-07T00:19:15;24.58;;;12.32;;
70929;SDS011;58588;48.102;19.682;2023-05-07T00:22:17;28.50;;;13.48;;
70929;SDS011;58588;48.102;19.682;2023-05-07T00:25:19;22.00;;;11.82;;
70929;SDS011;58588;48.102;19.682;2023-05-07T00:28:21;20.43;;;9.83;;
70929;SDS011;58588;48.102;19.682;2023-05-07T00:31:23;19.05;;;9.57;;
70929;SDS011;58588;48.102;19.682;2023-05-07T00:34:26;18.17;;;9.40;;
70929;SDS011;58588;48.102;19.682;2023-05-07T00:37:28;18.00;;;8.77;;
70929;SDS011;58588;48.102;19.682;2023-05-07T00:40:31;18.00;;;8.77;;
70929;SDS011;58588;48.102;19.682;2023-05-07T00:43:33;17.33;;;8.37;;
70929;SDS011;58588;48.102;19.682;2023-05-07T00:46:35;22.42;;;9.63;;
70929;SDS011;58588;48.102;19.682;2023-05-07T00:49:39;17.98;;;8.82;;
70929;SDS011;58588;48.102;19.682;2023-05-07T00:52:43;17.73;;;8.38;;
70929;SDS011;58588;48.102;19.682;2023-05-07T00:55:45;26.17;;;12.02;;
70929;SDS011;58588;48.102;19.682;2023-05-07T00:58:47;20.43;;;11.07;;
70929;SDS011;58588;48.102;19.682;2023-05-07T01:01:49;18.65;;;9.80;;
70929;SDS011;58588;48.102;19.682;2023-05-07T01:04:53;20.38;;;10.90;;
70929;SDS011;58588;48.102;19.682;2023-05-07T01:07:56;24.30;;;11.02;;
70929;SDS011;58588;48.102;19.682;2023-05-07T01:10:59;21.60;;;11.40;;
70929;SDS011;58588;48.102;19.682;2023-05-07T01:14:02;22.63;;;11.50;;
70929;SDS011;58588;48.102;19.682;2023-05-07T01:17:04;25.88;;;11.80;;
70929;SDS011;58588;48.102;19.682;2023-05-07T01:20:08;20.52;;;9.95;;
70929;SDS011;58588;48.102;19.682;2023-05-07T01:23:13;20.00;;;10.30;;
70929;SDS011;58588;48.102;19.682;2023-05-07T01:26:16;22.17;;;10.18;;
70929;SDS011;58588;48.102;19.682;2023-05-07T01:29:19;19.33;;;9.03;;
70929;SDS011;58588;48.102;19.682;2023-05-07T01:32:24;17.55;;;9.55;;
70929;SDS011;58588;48.102;19.682;2023-05-07T01:35:32;18.80;;;9.80;;
70929;SDS011;58588;48.102;19.682;2023-05-07T01:38:40;21.30;;;9.70;;
70929;SDS011;58588;48.102;19.682;2023-05-07T01:41:43;23.27;;;12.05;;
70929;SDS011;58588;48.102;19.682;2023-05-07T01:44:46;17.80;;;9.13;;
70929;SDS011;58588;48.102;19.682;2023-05-07T01:47:48;18.08;;;8.60;;
70929;SDS011;58588;48.102;19.682;2023-05-07T01:50:51;19.45;;;9.23;;
70929;SDS011;58588;48.102;19.682;2023-05-07T01:53:54;16.85;;;8.57;;
70929;SDS011;58588;48.102;19.682;2023-05-07T01:56:56;16.42;;;8.95;;
70929;SDS011;58588;48.102;19.682;2023-05-07T01:59:58;18.73;;;9.50;;
70929;SDS011;58588;48.102;19.682;2023-05-07T02:03:00;19.73;;;8.93;;
70929;SDS011;58588;48.102;19.682;2023-05-07T02:06:03;18.50;;;9.63;;
70929;SDS011;58588;48.102;19.682;2023-05-07T02:13:03;17.83;;;8.60;;
70929;SDS011;58588;48.102;19.682;2023-05-07T02:16:05;15.57;;;7.73;;
70929;SDS011;58588;48.102;19.682;2023-05-07T02:19:07;14.77;;;7.45;;
70929;SDS011;58588;48.102;19.682;2023-05-07T02:22:09;15.02;;;7.63;;
70929;SDS011;58588;48.102;19.682;2023-05-07T02:25:11;15.55;;;7.97;;
70929;SDS011;58588;48.102;19.682;2023-05-07T02:28:15;15.95;;;7.50;;
70929;SDS011;58588;48.102;19.682;2023-05-07T02:31:17;14.70;;;7.77;;
70929;SDS011;58588;48.102;19.682;2023-05-07T02:34:19;16.95;;;8.63;;
70929;SDS011;58588;48.102;19.682;2023-05-07T02:37:24;16.80;;;8.43;;
70929;SDS011;58588;48.102;19.682;2023-05-07T02:40:26;14.40;;;7.80;;
70929;SDS011;58588;48.102;19.682;2023-05-07T02:43:29;16.85;;;7.63;;
70929;SDS011;58588;48.102;19.682;2023-05-07T02:46:34;15.87;;;8.20;;
70929;SDS011;58588;48.102;19.682;2023-05-07T02:49:36;16.90;;;7.93;;
70929;SDS011;58588;48.102;19.682;2023-05-07T02:52:38;16.13;;;7.93;;
70929;SDS011;58588;48.102;19.682;2023-05-07T02:55:40;14.90;;;7.75;;
70929;SDS011;58588;48.102;19.682;2023-05-07T02:58:44;15.60;;;6.88;;
70929;SDS011;58588;48.102;19.682;2023-05-07T03:01:46;12.93;;;6.43;;
70929;SDS011;58588;48.102;19.682;2023-05-07T03:04:48;15.23;;;6.88;;
70929;SDS011;58588;48.102;19.682;2023-05-07T03:07:50;15.65;;;7.07;;
70929;SDS011;58588;48.102;19.682;2023-05-07T03:10:52;13.65;;;7.07;;
70929;SDS011;58588;48.102;19.682;2023-05-07T03:13:56;13.98;;;7.47;;
70929;SDS011;58588;48.102;19.682;2023-05-07T03:16:58;16.20;;;7.73;;
70929;SDS011;58588;48.102;19.682;2023-05-07T03:20:00;16.48;;;7.95;;
70929;SDS011;58588;48.102;19.682;2023-05-07T03:23:02;12.55;;;6.65;;
70929;SDS011;58588;48.102;19.682;2023-05-07T03:26:04;14.90;;;6.70;;
70929;SDS011;58588;48.102;19.682;2023-05-07T03:29:08;15.23;;;7.45;;
70929;SDS011;58588;48.102;19.682;2023-05-07T03:32:10;15.47;;;7.43;;
70929;SDS011;58588;48.102;19.682;2023-05-07T03:35:12;15.77;;;8.07;;
70929;SDS011;58588;48.102;19.682;2023-05-07T03:38:14;15.15;;;7.53;;
70929;SDS011;58588;48.102;19.682;2023-05-07T03:41:16;14.82;;;7.50;;
70929;SDS011;58588;48.102;19.682;2023-05-07T03:44:19;15.27;;;7.63;;
70929;SDS011;58588;48.102;19.682;2023-05-07T03:47:21;15.80;;;7.53;;
70929;SDS011;58588;48.102;19.682;2023-05-07T03:50:23;13.38;;;7.00;;
70929;SDS011;58588;48.102;19.682;2023-05-07T03:53:25;14.77;;;7.47;;
70929;SDS011;58588;48.102;19.682;2023-05-07T03:56:27;16.15;;;8.00;;
70929;SDS011;58588;48.102;19.682;2023-05-07T03:59:32;17.33;;;8.25;;
70929;SDS011;58588;48.102;19.682;2023-05-07T04:02:34;15.13;;;8.13;;
70929;SDS011;58588;48.102;19.682;2023-05-07T04:05:36;20.40;;;8.45;;
70929;SDS011;58588;48.102;19.682;2023-05-07T04:08:38;16.05;;;8.10;;
70929;SDS011;58588;48.102;19.682;2023-05-07T04:11:40;18.98;;;8.07;;
70929;SDS011;58588;48.102;19.682;2023-05-07T04:14:44;15.07;;;7.85;;
70929;SDS011;58588;48.102;19.682;2023-05-07T04:17:47;15.83;;;8.03;;
70929;SDS011;58588;48.102;19.682;2023-05-07T04:20:49;18.70;;;8.43;;
70929;SDS011;58588;48.102;19.682;2023-05-07T04:23:51;16.23;;;8.35;;
70929;SDS011;58588;48.102;19.682;2023-05-07T04:26:53;19.65;;;8.52;;
70929;SDS011;58588;48.102;19.682;2023-05-07T04:29:56;18.35;;;9.00;;
70929;SDS011;58588;48.102;19.682;2023-05-07T04:33:00;16.93;;;8.50;;
70929;SDS011;58588;48.102;19.682;2023-05-07T04:36:03;20.25;;;9.93;;
70929;SDS011;58588;48.102;19.682;2023-05-07T04:39:05;17.35;;;9.02;;
70929;SDS011;58588;48.102;19.682;2023-05-07T04:42:08;18.83;;;9.38;;
70929;SDS011;58588;48.102;19.682;2023-05-07T04:45:11;21.50;;;9.93;;
70929;SDS011;58588;48.102;19.682;2023-05-07T04:48:13;20.60;;;10.00;;
70929;SDS011;58588;48.102;19.682;2023-05-07T04:51:16;19.60;;;9.70;;
70929;SDS011;58588;48.102;19.682;2023-05-07T04:54:18;20.17;;;9.45;;
70929;SDS011;58588;48.102;19.682;2023-05-07T04:57:20;17.25;;;8.98;;
70929;SDS011;58588;48.102;19.682;2023-05-07T05:00:23;22.08;;;12.52;;
70929;SDS011;58588;48.102;19.682;2023-05-07T05:03:26;21.87;;;11.37;;
70929;SDS011;58588;48.102;19.682;2023-05-07T05:06:28;22.58;;;9.60;;
70929;SDS011;58588;48.102;19.682;2023-05-07T05:09:30;17.17;;;8.90;;
70929;SDS011;58588;48.102;19.682;2023-05-07T05:12:32;17.33;;;9.10;;
70929;SDS011;58588;48.102;19.682;2023-05-07T05:15:36;16.08;;;8.57;;
70929;SDS011;58588;48.102;19.682;2023-05-07T05:18:38;15.63;;;8.50;;
70929;SDS011;58588;48.102;19.682;2023-05-07T05:21:40;15.70;;;8.32;;
70929;SDS011;58588;48.102;19.682;2023-05-07T05:24:42;18.58;;;8.63;;
70929;SDS011;58588;48.102;19.682;2023-05-07T05:27:44;16.70;;;9.05;;
70929;SDS011;58588;48.102;19.682;2023-05-07T05:30:47;14.82;;;8.27;;
70929;SDS011;58588;48.102;19.682;2023-05-07T05:33:50;16.07;;;9.03;;
70929;SDS011;58588;48.102;19.682;2023-05-07T05:36:52;16.33;;;8.70;;
70929;SDS011;58588;48.102;19.682;2023-05-07T05:39:54;16.95;;;9.25;;
70929;SDS011;58588;48.102;19.682;2023-05-07T05:42:56;16.73;;;9.00;;
70929;SDS011;58588;48.102;19.682;2023-05-07T05:45:59;15.88;;;8.77;;
70929;SDS011;58588;48.102;19.682;2023-05-07T05:49:01;15.63;;;8.50;;
70929;SDS011;58588;48.102;19.682;2023-05-07T05:52:03;19.30;;;9.13;;
70929;SDS011;58588;48.102;19.682;2023-05-07T05:55:06;16.08;;;8.98;;
70929;SDS011;58588;48.102;19.682;2023-05-07T05:58:08;15.35;;;8.85;;
70929;SDS011;58588;48.102;19.682;2023-05-07T06:01:12;15.43;;;8.85;;
70929;SDS011;58588;48.102;19.682;2023-05-07T06:04:14;14.33;;;8.50;;
70929;SDS011;58588;48.102;19.682;2023-05-07T06:07:16;14.38;;;8.38;;
70929;SDS011;58588;48.102;19.682;2023-05-07T06:10:19;15.60;;;8.23;;
70929;SDS011;58588;48.102;19.682;2023-05-07T06:13:22;13.68;;;7.75;;
70929;SDS011;58588;48.102;19.682;2023-05-07T06:16:26;12.75;;;7.57;;
70929;SDS011;58588;48.102;19.682;2023-05-07T06:19:28;13.10;;;7.57;;
70929;SDS011;58588;48.102;19.682;2023-05-07T06:22:30;12.20;;;7.45;;
70929;SDS011;58588;48.102;19.682;2023-05-07T06:25:32;13.30;;;7.18;;
70929;SDS011;58588;48.102;19.682;2023-05-07T06:28:34;11.27;;;6.85;;
70929;SDS011;58588;48.102;19.682;2023-05-07T06:31:38;12.63;;;6.68;;
70929;SDS011;58588;48.102;19.682;2023-05-07T06:34:40;12.27;;;6.47;;
70929;SDS011;58588;48.102;19.682;2023-05-07T06:37:42;12.00;;;6.88;;
70929;SDS011;58588;48.102;19.682;2023-05-07T06:40:47;12.25;;;7.13;;
70929;SDS011;58588;48.102;19.682;2023-05-07T06:43:50;12.90;;;6.82;;
70929;SDS011;58588;48.102;19.682;2023-05-07T06:46:53;12.30;;;6.75;;
70929;SDS011;58588;48.102;19.682;2023-05-07T06:49:55;14.10;;;7.27;;
70929;SDS011;58588;48.102;19.682;2023-05-07T06:52:57;13.40;;;7.40;;
70929;SDS011;58588;48.102;19.682;2023-05-07T06:55:59;12.63;;;7.18;;
70929;SDS011;58588;48.102;19.682;2023-05-07T06:59:02;12.85;;;7.10;;
70929;SDS011;58588;48.102;19.682;2023-05-07T07:02:06;11.30;;;6.38;;
70929;SDS011;58588;48.102;19.682;2023-05-07T07:05:08;12.03;;;6.63;;
70929;SDS011;58588;48.102;19.682;2023-05-07T07:08:11;11.23;;;6.43;;
70929;SDS011;58588;48.102;19.682;2023-05-07T07:11:13;13.50;;;7.07;;
70929;SDS011;58588;48.102;19.682;2023-05-07T07:14:16;13.65;;;7.30;;
70929;SDS011;58588;48.102;19.682;2023-05-07T07:17:19;14.95;;;6.90;;
70929;SDS011;58588;48.102;19.682;2023-05-07T07:20:21;15.03;;;7.07;;
70929;SDS011;58588;48.102;19.682;2023-05-07T07:23:24;11.98;;;6.95;;
70929;SDS011;58588;48.102;19.682;2023-05-07T07:26:26;11.60;;;7.10;;
70929;SDS011;58588;48.102;19.682;2023-05-07T07:29:28;12.05;;;6.82;;
70929;SDS011;58588;48.102;19.682;2023-05-07T07:32:31;10.93;;;6.25;;
70929;SDS011;58588;48.102;19.682;2023-05-07T07:35:33;10.97;;;5.93;;
70929;SDS011;58588;48.102;19.682;2023-05-07T07:38:36;10.35;;;5.88;;
70929;SDS011;58588;48.102;19.682;2023-05-07T07:41:38;12.00;;;5.80;;
70929;SDS011;58588;48.102;19.682;2023-05-07T07:44:40;11.05;;;5.43;;
70929;SDS011;58588;48.102;19.682;2023-05-07T07:47:43;11.20;;;5.68;;
70929;SDS011;58588;48.102;19.682;2023-05-07T07:50:48;9.63;;;5.63;;
70929;SDS011;58588;48.102;19.682;2023-05-07T07:53:50;10.82;;;6.35;;
70929;SDS011;58588;48.102;19.682;2023-05-07T07:56:52;10.13;;;6.22;;
70929;SDS011;58588;48.102;19.682;2023-05-07T07:59:54;11.02;;;6.00;;
70929;SDS011;58588;48.102;19.682;2023-05-07T08:02:58;9.32;;;5.10;;
70929;SDS011;58588;48.102;19.682;2023-05-07T08:06:00;9.33;;;5.20;;
70929;SDS011;58588;48.102;19.682;2023-05-07T08:09:02;10.50;;;4.55;;
70929;SDS011;58588;48.102;19.682;2023-05-07T08:12:04;8.20;;;4.20;;
70929;SDS011;58588;48.102;19.682;2023-05-07T08:15:07;6.88;;;3.30;;
70929;SDS011;58588;48.102;19.682;2023-05-07T08:18:12;6.80;;;3.50;;
70929;SDS011;58588;48.102;19.682;2023-05-07T08:21:14;8.13;;;4.27;;
70929;SDS011;58588;48.102;19.682;2023-05-07T08:24:16;7.85;;;3.70;;
70929;SDS011;58588;48.102;19.682;2023-05-07T08:27:18;6.50;;;3.25;;
70929;SDS011;58588;48.102;19.682;2023-05-07T08:30:20;9.57;;;3.33;;
70929;SDS011;58588;48.102;19.682;2023-05-07T08:33:24;7.25;;;3.00;;
70929;SDS011;58588;48.102;19.682;2023-05-07T08:36:26;8.10;;;3.57;;
70929;SDS011;58588;48.102;19.682;2023-05-07T08:39:28;6.38;;;2.30;;
70929;SDS011;58588;48.102;19.682;2023-05-07T08:42:30;6.70;;;2.67;;
70929;SDS011;58588;48.102;19.682;2023-05-07T08:45:36;7.35;;;3.03;;
70929;SDS011;58588;48.102;19.682;2023-05-07T08:48:42;6.10;;;2.70;;
70929;SDS011;58588;48.102;19.682;2023-05-07T08:51:44;5.83;;;2.50;;
70929;SDS011;58588;48.102;19.682;2023-05-07T08:54:47;6.38;;;2.83;;
70929;SDS011;58588;48.102;19.682;2023-05-07T08:57:49;6.35;;;3.50;;
70929;SDS011;58588;48.102;19.682;2023-05-07T09:00:53;6.30;;;2.88;;
70929;SDS011;58588;48.102;19.682;2023-05-07T09:03:57;7.50;;;2.90;;
70929;SDS011;58588;48.102;19.682;2023-05-07T09:06:59;6.73;;;2.50;;
70929;SDS011;58588;48.102;19.682;2023-05-07T09:10:06;6.38;;;2.97;;
70929;SDS011;58588;48.102;19.682;2023-05-07T09:13:08;6.20;;;2.60;;
70929;SDS011;58588;48.102;19.682;2023-05-07T09:16:13;5.88;;;2.47;;
70929;SDS011;58588;48.102;19.682;2023-05-07T09:19:18;5.25;;;1.95;;
70929;SDS011;58588;48.102;19.682;2023-05-07T09:22:24;6.47;;;1.90;;
70929;SDS011;58588;48.102;19.682;2023-05-07T09:25:29;5.00;;;2.00;;
70929;SDS011;58588;48.102;19.682;2023-05-07T09:28:33;6.13;;;2.42;;
70929;SDS011;58588;48.102;19.682;2023-05-07T09:31:36;4.90;;;1.80;;
70929;SDS011;58588;48.102;19.682;2023-05-07T09:34:40;4.72;;;1.80;;
70929;SDS011;58588;48.102;19.682;2023-05-07T09:37:43;6.53;;;2.00;;
70929;SDS011;58588;48.102;19.682;2023-05-07T09:40:45;6.38;;;1.90;;
70929;SDS011;58588;48.102;19.682;2023-05-07T09:43:48;4.95;;;2.10;;
70929;SDS011;58588;48.102;19.682;2023-05-07T09:46:55;5.35;;;2.20;;
70929;SDS011;58588;48.102;19.682;2023-05-07T09:50:02;5.47;;;2.10;;
70929;SDS011;58588;48.102;19.682;2023-05-07T09:53:10;7.00;;;2.20;;
70929;SDS011;58588;48.102;19.682;2023-05-07T09:56:14;5.45;;;2.10;;
70929;SDS011;58588;48.102;19.682;2023-05-07T09:59:17;5.25;;;1.92;;
70929;SDS011;58588;48.102;19.682;2023-05-07T10:02:21;5.43;;;1.90;;
70929;SDS011;58588;48.102;19.682;2023-05-07T10:05:28;5.30;;;1.60;;
70929;SDS011;58588;48.102;19.682;2023-05-07T10:08:31;5.10;;;1.90;;
70929;SDS011;58588;48.102;19.682;2023-05-07T10:11:33;5.65;;;2.03;;
70929;SDS011;58588;48.102;19.682;2023-05-07T10:14:36;5.90;;;1.90;;
70929;SDS011;58588;48.102;19.682;2023-05-07T10:17:39;5.30;;;1.90;;
70929;SDS011;58588;48.102;19.682;2023-05-07T10:20:43;5.75;;;2.05;;
70929;SDS011;58588;48.102;19.682;2023-05-07T10:23:50;7.00;;;1.93;;
70929;SDS011;58588;48.102;19.682;2023-05-07T10:26:55;6.78;;;1.95;;
70929;SDS011;58588;48.102;19.682;2023-05-07T10:30:01;6.15;;;1.95;;
70929;SDS011;58588;48.102;19.682;2023-05-07T10:33:13;6.53;;;1.50;;
70929;SDS011;58588;48.102;19.682;2023-05-07T10:36:19;5.35;;;1.20;;
70929;SDS011;58588;48.102;19.682;2023-05-07T10:39:23;4.37;;;1.20;;
70929;SDS011;58588;48.102;19.682;2023-05-07T10:42:25;4.63;;;1.25;;
70929;SDS011;58588;48.102;19.682;2023-05-07T10:45:28;4.00;;;1.23;;
70929;SDS011;58588;48.102;19.682;2023-05-07T10:48:30;4.65;;;1.17;;
70929;SDS011;58588;48.102;19.682;2023-05-07T10:51:34;4.85;;;1.50;;
70929;SDS011;58588;48.102;19.682;2023-05-07T10:54:36;5.17;;;1.30;;
70929;SDS011;58588;48.102;19.682;2023-05-07T10:57:39;4.65;;;1.42;;
70929;SDS011;58588;48.102;19.682;2023-05-07T11:00:41;4.32;;;1.40;;
70929;SDS011;58588;48.102;19.682;2023-05-07T11:07:29;4.70;;;1.40;;
70929;SDS011;58588;48.102;19.682;2023-05-07T11:10:47;5.67;;;1.47;;
70929;SDS011;58588;48.102;19.682;2023-05-07T11:13:50;6.00;;;1.65;;
70929;SDS011;58588;48.102;19.682;2023-05-07T11:16:52;6.65;;;1.90;;
70929;SDS011;58588;48.102;19.682;2023-05-07T11:20:04;6.03;;;2.05;;
70929;SDS011;58588;48.102;19.682;2023-05-07T11:23:12;5.57;;;1.90;;
70929;SDS011;58588;48.102;19.682;2023-05-07T11:26:49;5.30;;;1.63;;
70929;SDS011;58588;48.102;19.682;2023-05-07T11:29:52;5.38;;;1.73;;
70929;SDS011;58588;48.102;19.682;2023-05-07T11:32:54;6.55;;;1.95;;
70929;SDS011;58588;48.102;19.682;2023-05-07T11:35:56;4.90;;;1.90;;
70929;SDS011;58588;48.102;19.682;2023-05-07T11:39:00;5.18;;;1.90;;
70929;SDS011;58588;48.102;19.682;2023-05-07T11:42:02;5.30;;;2.00;;
70929;SDS011;58588;48.102;19.682;2023-05-07T11:45:05;5.85;;;1.80;;
70929;SDS011;58588;48.102;19.682;2023-05-07T11:48:08;5.57;;;1.80;;
70929;SDS011;58588;48.102;19.682;2023-05-07T11:51:10;4.95;;;1.83;;
70929;SDS011;58588;48.102;19.682;2023-05-07T11:54:16;5.65;;;2.10;;
70929;SDS011;58588;48.102;19.682;2023-05-07T11:57:18;4.97;;;1.90;;
70929;SDS011;58588;48.102;19.682;2023-05-07T12:00:20;5.60;;;1.90;;
70929;SDS011;58588;48.102;19.682;2023-05-07T12:03:23;5.43;;;1.95;;
70929;SDS011;58588;48.102;19.682;2023-05-07T12:06:25;5.72;;;2.05;;
70929;SDS011;58588;48.102;19.682;2023-05-07T12:09:28;5.13;;;2.00;;
70929;SDS011;58588;48.102;19.682;2023-05-07T12:12:30;5.10;;;1.80;;
70929;SDS011;58588;48.102;19.682;2023-05-07T12:15:34;5.82;;;2.10;;
70929;SDS011;58588;48.102;19.682;2023-05-07T12:18:36;5.40;;;1.80;;
70929;SDS011;58588;48.102;19.682;2023-05-07T12:21:39;5.00;;;1.98;;
70929;SDS011;58588;48.102;19.682;2023-05-07T12:24:46;7.07;;;1.70;;
70929;SDS011;58588;48.102;19.682;2023-05-07T12:27:51;5.77;;;1.50;;
70929;SDS011;58588;48.102;19.682;2023-05-07T12:30:53;4.75;;;1.52;;
70929;SDS011;58588;48.102;19.682;2023-05-07T12:33:56;4.38;;;1.40;;
70929;SDS011;58588;48.102;19.682;2023-05-07T12:37:01;4.15;;;1.33;;
70929;SDS011;58588;48.102;19.682;2023-05-07T12:40:05;5.43;;;1.52;;
70929;SDS011;58588;48.102;19.682;2023-05-07T12:46:17;5.00;;;1.50;;
70929;SDS011;58588;48.102;19.682;2023-05-07T12:49:19;5.07;;;1.88;;
70929;SDS011;58588;48.102;19.682;2023-05-07T12:52:21;5.38;;;1.90;;
70929;SDS011;58588;48.102;19.682;2023-05-07T12:55:25;5.38;;;1.92;;
70929;SDS011;58588;48.102;19.682;2023-05-07T12:58:27;5.17;;;1.97;;
70929;SDS011;58588;48.102;19.682;2023-05-07T13:01:31;6.15;;;2.05;;
70929;SDS011;58588;48.102;19.682;2023-05-07T13:04:35;6.05;;;2.00;;
70929;SDS011;58588;48.102;19.682;2023-05-07T13:07:37;4.95;;;1.98;;
70929;SDS011;58588;48.102;19.682;2023-05-07T13:10:42;6.38;;;2.50;;
70929;SDS011;58588;48.102;19.682;2023-05-07T13:13:44;6.00;;;2.50;;
70929;SDS011;58588;48.102;19.682;2023-05-07T13:16:46;6.93;;;1.90;;
70929;SDS011;58588;48.102;19.682;2023-05-07T13:19:48;5.55;;;2.25;;
70929;SDS011;58588;48.102;19.682;2023-05-07T13:22:50;7.65;;;2.10;;
70929;SDS011;58588;48.102;19.682;2023-05-07T13:25:53;6.47;;;2.20;;
70929;SDS011;58588;48.102;19.682;2023-05-07T13:28:56;5.77;;;2.27;;
70929;SDS011;58588;48.102;19.682;2023-05-07T13:31:58;6.35;;;2.10;;
70929;SDS011;58588;48.102;19.682;2023-05-07T13:35:00;6.32;;;2.20;;
70929;SDS011;58588;48.102;19.682;2023-05-07T13:38:03;5.90;;;2.33;;
70929;SDS011;58588;48.102;19.682;2023-05-07T13:41:07;6.18;;;2.33;;
70929;SDS011;58588;48.102;19.682;2023-05-07T13:44:09;7.73;;;2.10;;
70929;SDS011;58588;48.102;19.682;2023-05-07T13:47:11;5.60;;;2.00;;
70929;SDS011;58588;48.102;19.682;2023-05-07T13:50:13;6.90;;;1.98;;
70929;SDS011;58588;48.102;19.682;2023-05-07T13:53:16;8.52;;;2.00;;
70929;SDS011;58588;48.102;19.682;2023-05-07T13:56:21;4.88;;;1.58;;
70929;SDS011;58588;48.102;19.682;2023-05-07T13:59:23;5.70;;;1.87;;
70929;SDS011;58588;48.102;19.682;2023-05-07T14:02:25;6.30;;;2.00;;
70929;SDS011;58588;48.102;19.682;2023-05-07T14:05:27;6.20;;;2.30;;
70929;SDS011;58588;48.102;19.682;2023-05-07T14:08:29;6.85;;;1.70;;
70929;SDS011;58588;48.102;19.682;2023-05-07T14:11:32;4.90;;;1.67;;
70929;SDS011;58588;48.102;19.682;2023-05-07T14:14:34;5.10;;;1.63;;
70929;SDS011;58588;48.102;19.682;2023-05-07T14:17:36;6.22;;;1.90;;
70929;SDS011;58588;48.102;19.682;2023-05-07T14:20:38;5.38;;;1.75;;
70929;SDS011;58588;48.102;19.682;2023-05-07T14:23:40;6.97;;;1.90;;
70929;SDS011;58588;48.102;19.682;2023-05-07T14:26:44;6.78;;;2.10;;
70929;SDS011;58588;48.102;19.682;2023-05-07T14:29:47;8.03;;;2.03;;
70929;SDS011;58588;48.102;19.682;2023-05-07T14:32:52;6.50;;;2.30;;
70929;SDS011;58588;48.102;19.682;2023-05-07T14:35:54;5.60;;;1.90;;
70929;SDS011;58588;48.102;19.682;2023-05-07T14:38:56;5.10;;;1.88;;
70929;SDS011;58588;48.102;19.682;2023-05-07T14:42:00;5.15;;;1.90;;
70929;SDS011;58588;48.102;19.682;2023-05-07T14:45:03;5.30;;;1.77;;
70929;SDS011;58588;48.102;19.682;2023-05-07T14:48:06;5.20;;;1.88;;
70929;SDS011;58588;48.102;19.682;2023-05-07T14:51:09;5.00;;;1.83;;
70929;SDS011;58588;48.102;19.682;2023-05-07T14:54:11;4.65;;;1.45;;
70929;SDS011;58588;48.102;19.682;2023-05-07T14:57:14;6.55;;;1.52;;
70929;SDS011;58588;48.102;19.682;2023-05-07T15:00:19;6.70;;;1.50;;
70929;SDS011;58588;48.102;19.682;2023-05-07T15:03:21;5.20;;;1.83;;
70929;SDS011;58588;48.102;19.682;2023-05-07T15:06:23;5.38;;;1.67;;
70929;SDS011;58588;48.102;19.682;2023-05-07T15:09:26;5.82;;;1.67;;
70929;SDS011;58588;48.102;19.682;2023-05-07T15:12:30;5.68;;;1.70;;
70929;SDS011;58588;48.102;19.682;2023-05-07T15:15:32;6.17;;;1.70;;
70929;SDS011;58588;48.102;19.682;2023-05-07T15:18:34;4.95;;;1.67;;
70929;SDS011;58588;48.102;19.682;2023-05-07T15:21:36;5.18;;;1.80;;
70929;SDS011;58588;48.102;19.682;2023-05-07T15:24:40;4.68;;;1.60;;
70929;SDS011;58588;48.102;19.682;2023-05-07T15:27:43;6.25;;;1.75;;
70929;SDS011;58588;48.102;19.682;2023-05-07T15:30:45;6.60;;;1.70;;
70929;SDS011;58588;48.102;19.682;2023-05-07T15:33:47;5.35;;;1.70;;
70929;SDS011;58588;48.102;19.682;2023-05-07T15:36:52;5.20;;;1.67;;
70929;SDS011;58588;48.102;19.682;2023-05-07T15:39:54;4.82;;;1.83;;
70929;SDS011;58588;48.102;19.682;2023-05-07T15:42:57;5.78;;;1.60;;
70929;SDS011;58588;48.102;19.682;2023-05-07T15:46:00;5.17;;;1.57;;
70929;SDS011;58588;48.102;19.682;2023-05-07T15:49:02;5.10;;;1.77;;
70929;SDS011;58588;48.102;19.682;2023-05-07T15:52:05;6.72;;;1.90;;
70929;SDS011;58588;48.102;19.682;2023-05-07T15:55:07;5.65;;;1.67;;
70929;SDS011;58588;48.102;19.682;2023-05-07T15:58:11;5.20;;;1.80;;
70929;SDS011;58588;48.102;19.682;2023-05-07T16:01:13;4.70;;;1.57;;
70929;SDS011;58588;48.102;19.682;2023-05-07T16:04:17;5.25;;;1.63;;
70929;SDS011;58588;48.102;19.682;2023-05-07T16:07:19;8.32;;;2.22;;
70929;SDS011;58588;48.102;19.682;2023-05-07T16:10:21;5.55;;;1.85;;
70929;SDS011;58588;48.102;19.682;2023-05-07T16:13:25;4.43;;;1.60;;
70929;SDS011;58588;48.102;19.682;2023-05-07T16:16:27;5.43;;;1.57;;
70929;SDS011;58588;48.102;19.682;2023-05-07T16:19:29;5.13;;;1.60;;
70929;SDS011;58588;48.102;19.682;2023-05-07T16:22:31;4.80;;;1.70;;
70929;SDS011;58588;48.102;19.682;2023-05-07T16:25:33;9.13;;;2.03;;
70929;SDS011;58588;48.102;19.682;2023-05-07T16:28:37;4.97;;;1.60;;
70929;SDS011;58588;48.102;19.682;2023-05-07T16:31:39;5.00;;;1.73;;
70929;SDS011;58588;48.102;19.682;2023-05-07T16:34:41;5.40;;;1.92;;
70929;SDS011;58588;48.102;19.682;2023-05-07T16:37:43;7.93;;;2.90;;
70929;SDS011;58588;48.102;19.682;2023-05-07T16:40:45;5.43;;;1.95;;
70929;SDS011;58588;48.102;19.682;2023-05-07T16:43:49;16.17;;;10.18;;
70929;SDS011;58588;48.102;19.682;2023-05-07T16:46:51;12.07;;;2.97;;
70929;SDS011;58588;48.102;19.682;2023-05-07T16:49:53;6.95;;;2.90;;
70929;SDS011;58588;48.102;19.682;2023-05-07T16:52:55;7.70;;;3.05;;
70929;SDS011;58588;48.102;19.682;2023-05-07T16:55:57;9.00;;;4.72;;
70929;SDS011;58588;48.102;19.682;2023-05-07T16:59:01;7.07;;;3.20;;
70929;SDS011;58588;48.102;19.682;2023-05-07T17:02:03;6.43;;;3.00;;
70929;SDS011;58588;48.102;19.682;2023-05-07T17:05:05;7.80;;;2.88;;
70929;SDS011;58588;48.102;19.682;2023-05-07T17:08:07;9.38;;;3.10;;
70929;SDS011;58588;48.102;19.682;2023-05-07T17:11:09;9.98;;;4.03;;
70929;SDS011;58588;48.102;19.682;2023-05-07T17:14:14;15.50;;;4.00;;
70929;SDS011;58588;48.102;19.682;2023-05-07T17:17:16;6.60;;;2.63;;
70929;SDS011;58588;48.102;19.682;2023-05-07T17:20:18;7.68;;;3.30;;
70929;SDS011;58588;48.102;19.682;2023-05-07T17:23:20;9.48;;;3.50;;
70929;SDS011;58588;48.102;19.682;2023-05-07T17:26:22;7.30;;;3.35;;
70929;SDS011;58588;48.102;19.682;2023-05-07T17:29:26;9.55;;;3.10;;
70929;SDS011;58588;48.102;19.682;2023-05-07T17:32:29;7.77;;;2.73;;
70929;SDS011;58588;48.102;19.682;2023-05-07T17:35:33;7.28;;;3.20;;
70929;SDS011;58588;48.102;19.682;2023-05-07T17:38:35;7.43;;;3.25;;
70929;SDS011;58588;48.102;19.682;2023-05-07T17:41:37;7.90;;;3.38;;
70929;SDS011;58588;48.102;19.682;2023-05-07T17:44:41;7.70;;;3.30;;
70929;SDS011;58588;48.102;19.682;2023-05-07T17:47:43;7.13;;;3.13;;
70929;SDS011;58588;48.102;19.682;2023-05-07T17:51:00;8.23;;;3.25;;
70929;SDS011;58588;48.102;19.682;2023-05-07T17:54:25;7.15;;;3.00;;
70929;SDS011;58588;48.102;19.682;2023-05-07T17:57:27;7.35;;;2.80;;
70929;SDS011;58588;48.102;19.682;2023-05-07T18:00:32;8.32;;;2.97;;
70929;SDS011;58588;48.102;19.682;2023-05-07T18:03:35;7.33;;;2.97;;
70929;SDS011;58588;48.102;19.682;2023-05-07T18:06:37;9.13;;;3.30;;
70929;SDS011;58588;48.102;19.682;2023-05-07T18:09:41;12.82;;;4.45;;